Time;durP1;ratioP1;P1;durP2;ratioP2;P2;SDS_P1;SDS_P2;PMS_P1;PMS_P2;Temp;Humidity;BMP_temperature;BMP_pressure;BME280_temperature;BME280_humidity;BME280_pressure;Samples;Min_cycle;Max_cycle;Signal;HPM_P1;HPM_P2
2023/08/27 00:01:10;;;;;;;8.20;6.93;;;;;;;18.48;80.54;95705.16;5087520;28;20615;-70
2023/08/27 00:03:36;;;;;;;8.83;7.17;;;;;;;18.36;81.11;95702.59;5087536;28;20195;-69
2023/08/27 00:06:02;;;;;;;7.90;6.67;;;;;;;18.51;80.39;95697.75;5087728;28;20445;-69
2023/08/27 00:08:28;;;;;;;7.93;7.13;;;;;;;18.66;79.79;95698.25;5087629;28;20173;-69
2023/08/27 00:10:58;;;;;;;9.10;8.20;;;;;;;18.56;80.06;95692.88;5087301;28;20192;-69
2023/08/27 00:13:23;;;;;;;9.40;8.40;;;;;;;18.41;80.21;95687.09;5087456;28;20415;-70
2023/08/27 00:15:49;;;;;;;8.10;7.30;;;;;;;18.28;80.80;95689.09;5087385;28;20582;-69
2023/08/27 00:18:14;;;;;;;8.83;7.93;;;;;;;18.29;80.83;95703.25;5087219;28;20863;-70
2023/08/27 00:20:41;;;;;;;8.30;7.43;;;;;;;18.26;80.94;95711.47;5087031;28;20189;-70
2023/08/27 00:23:08;;;;;;;8.57;7.47;;;;;;;18.39;80.11;95706.78;5087382;28;20197;-68
2023/08/27 00:25:34;;;;;;;9.00;8.10;;;;;;;18.37;79.94;95712.22;5087310;28;20404;-69
2023/08/27 00:27:59;;;;;;;8.97;8.10;;;;;;;18.23;80.66;95720.53;5087308;28;20775;-70
2023/08/27 00:30:24;;;;;;;7.67;6.93;;;;;;;18.22;80.75;95707.41;5086799;28;20169;-69
2023/08/27 00:32:50;;;;;;;10.83;7.00;;;;;;;18.51;79.26;95700.41;5087201;28;20165;-70
2023/08/27 00:35:15;;;;;;;7.77;7.07;;;;;;;18.35;79.75;95723.94;5087183;28;20173;-70
2023/08/27 00:37:40;;;;;;;9.60;8.60;;;;;;;18.32;79.58;95727.72;5087343;28;20177;-69
2023/08/27 00:40:07;;;;;;;7.90;7.10;;;;;;;18.25;79.60;95723.06;5086843;28;20179;-71
2023/08/27 00:42:32;;;;;;;7.93;7.23;;;;;;;18.13;80.58;95723.13;5088512;28;20208;-69
2023/08/27 00:44:57;;;;;;;8.27;7.47;;;;;;;18.20;80.21;95715.50;5091232;28;20498;-71
2023/08/27 00:47:23;;;;;;;8.50;7.20;;;;;;;18.44;78.96;95701.91;5091465;28;20570;-68
2023/08/27 00:49:49;;;;;;;10.40;7.00;;;;;;;18.46;78.68;95692.00;5091074;28;20173;-70
2023/08/27 00:52:16;;;;;;;7.77;6.17;;;;;;;18.30;79.37;95688.97;5090849;28;20189;-70
2023/08/27 00:54:42;;;;;;;9.30;7.23;;;;;;;18.67;78.49;95686.63;5090946;28;20502;-69
2023/08/27 00:57:08;;;;;;;13.30;6.90;;;;;;;18.78;78.29;95686.56;5090890;28;20828;-69
2023/08/27 00:59:34;;;;;;;13.00;7.40;;;;;;;18.85;77.89;95676.25;5090661;28;20174;-71
2023/08/27 01:02:00;;;;;;;7.77;6.97;;;;;;;18.88;77.29;95669.81;5090650;28;20458;-70
2023/08/27 01:04:26;;;;;;;7.63;6.70;;;;;;;18.91;76.69;95665.03;5090707;28;20219;-70
2023/08/27 01:06:52;;;;;;;8.80;5.97;;;;;;;19.00;76.02;95671.38;5090820;28;20676;-68
2023/08/27 01:09:27;;;;;;;16.50;7.63;;;;;;;19.14;75.84;95670.13;5090494;28;20168;-69
2023/08/27 01:12:04;;;;;;;9.70;7.00;;;;;;;19.24;75.42;95676.28;5091098;28;20743;-68
2023/08/27 01:14:33;;;;;;;6.77;6.07;;;;;;;19.15;76.23;95666.47;5091109;28;20406;-69
2023/08/27 01:17:02;;;;;;;7.47;6.67;;;;;;;19.25;76.49;95657.56;5090392;28;20514;-68
2023/08/27 01:19:28;;;;;;;6.93;6.20;;;;;;;19.18;76.89;95656.44;5090058;28;20472;-70
2023/08/27 01:21:54;;;;;;;10.10;6.63;;;;;;;19.17;77.03;95653.88;5090157;28;20520;-69
2023/08/27 01:24:19;;;;;;;12.77;7.20;;;;;;;19.14;76.99;95648.84;5090200;28;20408;-70
2023/08/27 01:26:47;;;;;;;7.47;6.57;;;;;;;19.07;77.41;95645.91;5090280;28;20208;-70
2023/08/27 01:29:46;;;;;;;7.37;6.57;;;;;;;19.09;77.33;95638.63;5089779;28;20181;-68
2023/08/27 01:32:36;;;;;;;9.67;6.63;;;;;;;19.11;76.97;95639.34;5089954;28;20447;-69
2023/08/27 01:35:03;;;;;;;7.83;6.37;;;;;;;18.79;78.16;95651.03;5090047;28;20408;-70
2023/08/27 01:37:29;;;;;;;7.20;6.23;;;;;;;19.04;77.78;95664.81;5090035;28;21173;-69
2023/08/27 01:40:05;;;;;;;7.23;6.23;;;;;;;19.12;78.36;95669.44;5089616;28;20533;-71
2023/08/27 01:42:37;;;;;;;7.87;6.90;;;;;;;19.22;77.18;95665.78;5090061;28;20204;-71
2023/08/27 01:45:05;;;;;;;17.80;6.80;;;;;;;19.13;77.53;95668.44;5089806;28;20415;-69
2023/08/27 01:47:30;;;;;;;12.03;6.80;;;;;;;19.22;76.80;95672.94;5089815;28;20407;-70
2023/08/27 01:49:56;;;;;;;7.93;5.70;;;;;;;19.22;77.60;95671.09;5089206;28;20777;-69
2023/08/27 01:52:22;;;;;;;8.33;5.93;;;;;;;19.31;77.67;95672.09;5089601;28;20201;-70
2023/08/27 01:54:47;;;;;;;9.20;6.47;;;;;;;19.31;77.15;95658.81;5088846;28;20162;-71
2023/08/27 01:57:13;;;;;;;7.03;6.33;;;;;;;19.33;76.85;95654.19;5089827;28;20399;-69
2023/08/27 01:59:38;;;;;;;10.07;6.80;;;;;;;19.20;76.64;95643.81;5089248;28;20338;-70
2023/08/27 02:02:04;;;;;;;7.67;6.87;;;;;;;18.87;78.01;95621.09;5089392;28;20202;-69
2023/08/27 02:04:29;;;;;;;9.47;6.03;;;;;;;19.04;77.18;95633.72;5089291;28;20218;-68
2023/08/27 02:06:54;;;;;;;8.33;6.20;;;;;;;19.11;77.33;95638.47;5089463;28;20249;-70
2023/08/27 02:09:20;;;;;;;8.47;6.70;;;;;;;19.21;77.42;95645.50;5088857;28;20193;-68
2023/08/27 02:11:45;;;;;;;8.50;6.37;;;;;;;19.15;78.13;95646.03;5089299;28;20775;-67
2023/08/27 02:14:10;;;;;;;6.60;5.90;;;;;;;19.08;78.71;95655.56;5089338;28;20173;-69
2023/08/27 02:16:37;;;;;;;18.37;6.67;;;;;;;19.10;77.47;95653.59;5089539;28;20177;-69
2023/08/27 02:19:03;;;;;;;8.40;6.70;;;;;;;19.03;77.44;95637.34;5089349;28;20223;-69
2023/08/27 02:21:29;;;;;;;9.27;6.23;;;;;;;18.80;78.05;95631.44;5089148;28;20546;-68
2023/08/27 02:23:55;;;;;;;9.93;6.53;;;;;;;18.24;80.73;95637.25;5089259;28;20165;-70
2023/08/27 02:26:20;;;;;;;6.77;6.00;;;;;;;18.33;80.75;95648.88;5089435;28;20414;-69
2023/08/27 02:28:46;;;;;;;8.17;6.30;;;;;;;18.53;79.90;95655.94;5089191;28;20173;-68
2023/08/27 02:31:12;;;;;;;8.40;6.90;;;;;;;18.64;79.38;95652.38;5088897;28;20193;-67
2023/08/27 02:33:38;;;;;;;8.77;7.87;;;;;;;18.79;78.55;95660.81;5089288;28;20895;-68
2023/08/27 02:36:04;;;;;;;8.90;7.00;;;;;;;18.86;78.15;95656.63;5089434;28;20541;-69
2023/08/27 02:38:29;;;;;;;9.20;6.93;;;;;;;18.85;78.30;95664.75;5089158;28;20170;-70
2023/08/27 02:40:55;;;;;;;8.50;7.70;;;;;;;18.94;78.20;95658.59;5088810;28;20201;-69
2023/08/27 02:43:20;;;;;;;10.50;7.63;;;;;;;18.90;78.67;95663.38;5089046;28;20169;-68
2023/08/27 02:45:47;;;;;;;8.87;8.00;;;;;;;18.90;78.68;95662.50;5088841;28;20184;-69
2023/08/27 02:48:12;;;;;;;9.67;7.77;;;;;;;18.51;80.92;95665.03;5088924;28;20169;-68
2023/08/27 02:50:38;;;;;;;7.90;7.10;;;;;;;18.65;80.34;95669.97;5088582;28;20796;-69
2023/08/27 02:53:04;;;;;;;8.90;8.00;;;;;;;18.67;79.72;95668.03;5088811;28;20703;-69
2023/08/27 02:55:31;;;;;;;7.90;7.13;;;;;;;18.78;79.74;95670.63;5088958;28;20161;-69
2023/08/27 02:57:57;;;;;;;8.67;7.70;;;;;;;18.97;78.60;95674.31;5088762;28;20653;-68
2023/08/27 03:00:23;;;;;;;8.30;7.37;;;;;;;19.03;78.55;95673.75;5088204;28;20403;-69
2023/08/27 03:02:49;;;;;;;11.00;8.27;;;;;;;19.10;77.99;95672.22;5088359;28;20447;-68
2023/08/27 03:05:14;;;;;;;9.20;8.07;;;;;;;19.11;77.62;95678.38;5088099;28;20184;-70
2023/08/27 03:07:39;;;;;;;9.30;7.40;;;;;;;19.15;77.74;95679.78;5088425;28;20178;-70
2023/08/27 03:10:05;;;;;;;9.07;8.13;;;;;;;19.03;78.04;95681.72;5088267;28;20165;-68
2023/08/27 03:12:31;;;;;;;10.93;8.23;;;;;;;19.12;77.66;95674.75;5088294;28;20208;-69
2023/08/27 03:14:56;;;;;;;8.37;7.40;;;;;;;18.93;78.31;95668.41;5088106;28;20415;-69
2023/08/27 03:17:22;;;;;;;9.50;8.57;;;;;;;19.04;78.22;95667.47;5088119;28;20230;-68
2023/08/27 03:19:47;;;;;;;12.20;7.70;;;;;;;19.03;78.20;95661.28;5087875;28;20617;-68
2023/08/27 03:22:12;;;;;;;9.50;8.53;;;;;;;18.86;78.62;95656.63;5088162;28;20445;-70
2023/08/27 03:24:38;;;;;;;10.33;8.47;;;;;;;18.78;78.97;95656.47;5088263;28;20253;-69
2023/08/27 03:27:04;;;;;;;9.13;8.27;;;;;;;18.78;78.70;95659.13;5088249;28;20185;-70
2023/08/27 03:29:29;;;;;;;9.57;8.50;;;;;;;18.81;78.72;95658.88;5087794;28;20177;-68
2023/08/27 03:31:55;;;;;;;8.77;7.90;;;;;;;18.79;78.72;95655.50;5087890;28;20615;-70
2023/08/27 03:34:20;;;;;;;9.37;7.50;;;;;;;18.76;78.58;95667.25;5087875;28;20169;-70
2023/08/27 03:36:46;;;;;;;9.23;6.90;;;;;;;18.89;77.77;95668.81;5087932;28;20166;-68
2023/08/27 03:39:11;;;;;;;9.23;6.70;;;;;;;18.93;77.95;95670.22;5087429;28;20176;-70
2023/08/27 03:41:37;;;;;;;10.87;8.87;;;;;;;18.85;77.92;95670.91;5087764;28;20638;-68
2023/08/27 03:44:02;;;;;;;7.90;7.10;;;;;;;18.98;77.81;95674.16;5087768;28;20166;-70
2023/08/27 03:46:28;;;;;;;7.93;6.97;;;;;;;19.06;77.40;95675.28;5087419;28;20169;-69
2023/08/27 03:48:53;;;;;;;9.70;8.57;;;;;;;19.04;77.33;95664.81;5087394;28;20181;-69
2023/08/27 03:51:19;;;;;;;9.90;8.90;;;;;;;19.05;77.13;95666.47;5087483;28;20193;-70
2023/08/27 03:53:44;;;;;;;9.30;8.23;;;;;;;19.08;77.19;95676.81;5087574;28;20177;-70
2023/08/27 03:56:09;;;;;;;9.67;8.17;;;;;;;18.98;77.81;95668.00;5087611;28;20176;-69
2023/08/27 03:58:35;;;;;;;11.33;10.10;;;;;;;19.03;77.86;95679.06;5087597;28;20706;-69
2023/08/27 04:01:00;;;;;;;10.57;8.90;;;;;;;19.04;77.93;95672.78;5087086;28;20181;-68
2023/08/27 04:03:26;;;;;;;10.37;9.07;;;;;;;18.95;78.28;95674.44;5087297;28;20170;-69
2023/08/27 04:05:51;;;;;;;12.10;9.30;;;;;;;19.03;77.81;95673.75;5087601;28;20192;-70
2023/08/27 04:08:17;;;;;;;13.03;10.20;;;;;;;19.14;77.56;95672.78;5087750;28;20174;-69
2023/08/27 04:10:52;;;;;;;10.93;9.83;;;;;;;19.21;77.13;95668.59;5087368;28;20204;-68
2023/08/27 04:13:18;;;;;;;16.73;10.47;;;;;;;19.14;77.37;95672.78;5087440;28;20610;-69
2023/08/27 04:16:02;;;;;;;12.53;11.23;;;;;;;19.06;77.46;95678.78;5087450;28;20411;-68
2023/08/27 04:18:27;;;;;;;13.03;11.40;;;;;;;19.04;77.58;95681.59;5090662;28;20738;-69
2023/08/27 04:20:54;;;;;;;16.33;10.70;;;;;;;19.06;77.41;95681.44;5091153;28;20434;-70
2023/08/27 04:23:19;;;;;;;16.87;12.00;;;;;;;19.07;77.60;95684.97;5091429;28;20227;-69
2023/08/27 04:25:45;;;;;;;16.07;10.77;;;;;;;19.11;77.67;95691.66;5091405;28;20516;-67
2023/08/27 04:28:11;;;;;;;13.37;11.13;;;;;;;19.16;77.35;95689.47;5091439;28;20214;-69
2023/08/27 04:30:37;;;;;;;13.07;10.00;;;;;;;19.15;77.84;95685.09;5091143;28;21000;-69
2023/08/27 04:33:05;;;;;;;13.33;11.10;;;;;;;19.11;77.91;95699.63;5091417;28;20166;-69
2023/08/27 04:35:31;;;;;;;14.30;11.30;;;;;;;19.11;77.92;95700.50;5091480;28;20424;-69
2023/08/27 04:37:56;;;;;;;12.87;11.50;;;;;;;19.11;77.71;95691.66;5091577;28;20553;-70
2023/08/27 04:40:21;;;;;;;44.13;14.07;;;;;;;19.10;77.91;95685.50;5091218;28;20197;-68
2023/08/27 04:42:47;;;;;;;21.00;11.70;;;;;;;19.10;78.01;95690.00;5091021;28;20590;-68
2023/08/27 04:45:12;;;;;;;24.23;12.83;;;;;;;19.12;78.03;95693.38;5091062;28;20183;-69
2023/08/27 04:47:38;;;;;;;51.03;13.03;;;;;;;19.13;78.17;95681.72;5091114;28;20182;-70
2023/08/27 04:50:04;;;;;;;22.90;11.90;;;;;;;19.13;78.52;95682.56;5090782;28;20634;-68
2023/08/27 04:52:30;;;;;;;22.13;11.97;;;;;;;19.12;78.30;95677.41;5090755;28;20193;-70
2023/08/27 04:54:55;;;;;;;19.00;11.80;;;;;;;18.87;78.92;95679.56;5090896;28;20433;-70
2023/08/27 04:57:20;;;;;;;13.50;12.00;;;;;;;18.79;79.41;95664.31;5090712;28;20180;-69
2023/08/27 04:59:46;;;;;;;15.83;12.33;;;;;;;18.73;79.50;95659.53;5090631;28;20184;-69
2023/08/27 05:02:11;;;;;;;17.83;12.67;;;;;;;18.76;79.53;95656.63;5090432;28;20215;-70
2023/08/27 05:04:36;;;;;;;30.03;13.23;;;;;;;18.66;79.66;95655.72;5090683;28;20355;-68
2023/08/27 05:07:02;;;;;;;16.90;12.10;;;;;;;18.63;80.01;95653.31;5090665;28;20201;-69
2023/08/27 05:09:27;;;;;;;30.07;12.73;;;;;;;18.75;79.42;95654.06;5090475;28;20177;-70
2023/08/27 05:11:53;;;;;;;15.40;11.10;;;;;;;18.61;79.69;95655.25;5090840;28;20246;-68
2023/08/27 05:14:18;;;;;;;11.47;10.07;;;;;;;18.68;79.84;95658.22;5090762;28;20177;-69
2023/08/27 05:16:44;;;;;;;16.37;10.70;;;;;;;18.57;79.91;95661.84;5090803;28;20178;-69
2023/08/27 05:19:09;;;;;;;11.50;10.20;;;;;;;18.55;80.17;95658.47;5090246;28;20596;-69
2023/08/27 05:21:35;;;;;;;10.83;9.73;;;;;;;18.46;80.73;95659.28;5090785;28;20283;-69
2023/08/27 05:24:00;;;;;;;14.43;9.80;;;;;;;18.62;80.09;95659.63;5090660;28;20264;-68
2023/08/27 05:26:26;;;;;;;11.77;9.87;;;;;;;18.68;79.89;95655.56;5090348;28;20200;-68
2023/08/27 05:28:51;;;;;;;14.73;9.90;;;;;;;18.62;80.30;95649.81;5089876;28;20177;-68
2023/08/27 05:31:17;;;;;;;12.13;9.43;;;;;;;18.63;79.92;95648.00;5090896;28;20303;-68
2023/08/27 05:33:42;;;;;;;17.50;10.80;;;;;;;18.66;79.55;95645.09;5092646;28;20197;-70
2023/08/27 05:36:07;;;;;;;15.77;11.23;;;;;;;18.59;79.66;95628.84;5091934;28;20169;-70
2023/08/27 05:38:33;;;;;;;12.40;10.67;;;;;;;18.45;80.25;95631.00;5090583;28;20252;-68
2023/08/27 05:40:58;;;;;;;13.57;11.10;;;;;;;18.45;80.18;95613.28;5089740;28;20562;-70
2023/08/27 05:43:24;;;;;;;9.97;8.63;;;;;;;18.25;81.03;95608.88;5090228;28;20307;-70
2023/08/27 05:45:49;;;;;;;11.70;8.70;;;;;;;18.27;80.80;95620.19;5090198;28;20178;-70
2023/08/27 05:48:15;;;;;;;16.00;8.63;;;;;;;18.45;80.06;95631.00;5090339;28;20174;-69
2023/08/27 05:50:40;;;;;;;11.50;7.40;;;;;;;18.61;78.67;95642.84;5089850;28;20606;-69
2023/08/27 05:53:06;;;;;;;9.10;6.30;;;;;;;18.62;77.75;95646.34;5090072;28;20193;-70
2023/08/27 05:55:31;;;;;;;7.90;6.47;;;;;;;18.71;77.68;95650.84;5089764;28;20178;-69
2023/08/27 05:57:57;;;;;;;8.93;6.43;;;;;;;18.69;77.55;95655.44;5089697;28;20714;-68
2023/08/27 06:00:22;;;;;;;9.73;5.10;;;;;;;18.81;77.24;95659.69;5089347;28;20168;-69
2023/08/27 06:02:47;;;;;;;8.53;4.53;;;;;;;18.85;76.42;95657.63;5089500;28;20205;-67
2023/08/27 06:05:13;;;;;;;11.17;4.67;;;;;;;18.82;76.38;95652.56;5089691;28;20173;-68
2023/08/27 06:07:39;;;;;;;9.47;3.67;;;;;;;18.88;75.82;95645.88;5089364;28;20208;-69
2023/08/27 06:10:05;;;;;;;9.40;4.13;;;;;;;18.88;76.08;95633.41;5089143;28;20781;-70
2023/08/27 06:12:31;;;;;;;6.23;3.20;;;;;;;18.84;75.76;95624.03;5089509;28;20189;-69
2023/08/27 06:14:56;;;;;;;4.13;3.50;;;;;;;18.78;76.21;95636.06;5089517;28;20177;-70
2023/08/27 06:17:22;;;;;;;11.40;4.37;;;;;;;18.76;76.14;95635.34;5089462;28;20178;-68
2023/08/27 06:19:47;;;;;;;5.97;3.27;;;;;;;18.80;75.91;95642.09;5089397;28;20205;-70
2023/08/27 06:22:12;;;;;;;9.50;3.43;;;;;;;18.87;75.79;95657.47;5089180;28;20209;-70
2023/08/27 06:24:38;;;;;;;12.77;3.70;;;;;;;18.98;75.69;95657.38;5089184;28;20170;-68
2023/08/27 06:27:03;;;;;;;4.20;3.37;;;;;;;18.91;76.41;95654.41;5089290;28;20173;-70
2023/08/27 06:29:29;;;;;;;5.90;3.13;;;;;;;18.92;75.88;95655.25;5088948;28;20177;-70
2023/08/27 06:31:55;;;;;;;4.83;3.40;;;;;;;18.93;76.23;95646.31;5089193;28;20185;-69
2023/08/27 06:34:21;;;;;;;7.20;3.40;;;;;;;18.93;75.50;95655.13;5089088;28;20180;-68
2023/08/27 06:36:46;;;;;;;7.13;3.17;;;;;;;18.90;76.09;95655.41;5088909;28;20443;-70
2023/08/27 06:39:11;;;;;;;6.13;3.10;;;;;;;18.85;76.15;95654.09;5088477;28;20908;-70
2023/08/27 06:41:37;;;;;;;4.50;3.67;;;;;;;18.82;75.96;95661.38;5088324;28;20200;-67
2023/08/27 06:44:02;;;;;;;5.03;3.30;;;;;;;18.85;76.08;95672.72;5089248;28;20181;-68
2023/08/27 06:46:28;;;;;;;4.23;3.07;;;;;;;18.83;75.60;95663.06;5089109;28;20635;-69
2023/08/27 06:48:53;;;;;;;4.70;3.47;;;;;;;18.90;75.57;95654.53;5089115;28;20235;-71
2023/08/27 06:51:18;;;;;;;5.30;3.20;;;;;;;18.81;75.57;95661.53;5089667;28;20242;-69
2023/08/27 06:53:44;;;;;;;8.43;3.27;;;;;;;18.83;75.11;95667.56;5088873;28;20829;-69
2023/08/27 06:56:09;;;;;;;5.20;3.37;;;;;;;18.80;74.79;95666.00;5088857;28;20611;-70
2023/08/27 06:58:35;;;;;;;4.63;3.07;;;;;;;18.85;74.29;95662.94;5088767;28;20264;-71
2023/08/27 07:01:04;;;;;;;5.53;2.60;;;;;;;18.82;74.17;95661.38;5088157;28;20188;-71
2023/08/27 07:03:30;;;;;;;3.90;3.10;;;;;;;18.90;74.08;95655.41;5088308;28;20173;-70
2023/08/27 07:05:55;;;;;;;4.80;2.93;;;;;;;18.87;73.87;95666.28;5088562;28;20419;-69
2023/08/27 07:08:21;;;;;;;9.70;3.37;;;;;;;18.77;74.83;95665.44;5088512;28;20260;-71
2023/08/27 07:10:46;;;;;;;4.97;2.97;;;;;;;18.79;74.42;95666.97;5087935;28;20189;-69
2023/08/27 07:13:11;;;;;;;6.37;3.07;;;;;;;18.79;74.01;95645.72;5088232;28;20830;-69
2023/08/27 07:15:37;;;;;;;3.10;2.70;;;;;;;18.78;73.96;95638.72;5088419;28;20173;-68
2023/08/27 07:18:02;;;;;;;5.13;3.00;;;;;;;18.72;74.09;95647.19;5087958;28;20225;-69
2023/08/27 07:20:28;;;;;;;5.87;3.13;;;;;;;18.78;74.80;95648.50;5087649;28;20627;-70
2023/08/27 07:22:53;;;;;;;4.00;2.50;;;;;;;18.86;74.74;95651.31;5088209;28;20208;-70
2023/08/27 07:25:21;;;;;;;2.70;2.50;;;;;;;18.88;74.55;95656.50;5087979;28;20184;-70
2023/08/27 07:27:46;;;;;;;5.77;3.07;;;;;;;18.81;74.99;95665.03;5088265;28;20256;-70
2023/08/27 07:30:12;;;;;;;7.40;2.97;;;;;;;18.86;74.91;95671.75;5087973;28;20506;-68
2023/08/27 07:32:37;;;;;;;8.70;2.80;;;;;;;18.92;74.91;95671.19;5088184;28;20181;-70
2023/08/27 07:35:03;;;;;;;3.33;2.80;;;;;;;19.00;74.52;95668.72;5087905;28;20488;-70
2023/08/27 07:37:28;;;;;;;12.63;3.10;;;;;;;18.98;74.55;95673.31;5088010;28;20180;-70
2023/08/27 07:39:54;;;;;;;4.67;3.37;;;;;;;19.08;74.47;95673.34;5087603;28;20592;-69
2023/08/27 07:42:21;;;;;;;4.90;2.70;;;;;;;19.07;73.79;95674.31;5087897;28;20193;-70
2023/08/27 07:44:47;;;;;;;7.20;2.90;;;;;;;19.10;72.78;95682.84;5088064;28;21054;-68
2023/08/27 07:47:13;;;;;;;6.30;2.40;;;;;;;19.13;73.04;95673.75;5087997;28;20450;-69
2023/08/27 07:49:38;;;;;;;3.97;2.80;;;;;;;18.94;74.02;95678.06;5087625;28;20571;-69
2023/08/27 07:52:04;;;;;;;3.33;3.03;;;;;;;18.95;73.03;95674.44;5086681;28;20435;-69
2023/08/27 07:54:29;;;;;;;4.63;2.60;;;;;;;19.02;72.66;95672.91;5087668;28;20204;-70
2023/08/27 07:56:55;;;;;;;4.53;2.40;;;;;;;19.01;72.62;95679.19;5091776;28;20185;-69
2023/08/27 07:59:20;;;;;;;2.97;2.60;;;;;;;18.99;72.37;95678.50;5087621;28;20299;-70
2023/08/27 08:01:45;;;;;;;7.70;2.60;;;;;;;18.92;72.72;95674.72;5087687;28;20674;-70
2023/08/27 08:04:11;;;;;;;5.77;4.73;;;;;;;18.88;73.02;95677.78;5088107;28;20268;-70
2023/08/27 08:06:36;;;;;;;6.07;3.10;;;;;;;18.82;72.97;95684.47;5087694;28;20203;-71
2023/08/27 08:09:02;;;;;;;8.57;2.50;;;;;;;18.83;72.17;95688.81;5087587;28;20185;-69
2023/08/27 08:11:27;;;;;;;3.83;2.13;;;;;;;18.79;72.71;95692.72;5087635;28;20216;-69
2023/08/27 08:13:52;;;;;;;5.63;2.30;;;;;;;18.73;72.17;95690.56;5088205;28;20177;-69
2023/08/27 08:16:19;;;;;;;3.73;2.27;;;;;;;18.80;71.63;95699.69;5097767;28;20638;-69
2023/08/27 08:18:44;;;;;;;14.20;2.90;;;;;;;18.83;71.45;95710.91;5102246;28;20181;-70
2023/08/27 08:21:10;;;;;;;19.33;4.70;;;;;;;18.85;72.31;95710.78;5101961;28;20431;-71
2023/08/27 08:23:35;;;;;;;12.07;3.20;;;;;;;18.69;72.82;95713.91;5090174;28;20267;-69
2023/08/27 08:26:00;;;;;;;15.57;2.97;;;;;;;18.79;72.94;95706.84;5090571;28;20177;-69
2023/08/27 08:28:26;;;;;;;4.83;2.10;;;;;;;18.73;73.05;95699.41;5089950;28;20170;-69
2023/08/27 08:30:52;;;;;;;5.67;2.60;;;;;;;18.82;72.34;95701.25;5089943;28;20193;-69
2023/08/27 08:33:18;;;;;;;6.67;2.80;;;;;;;18.78;72.36;95713.16;5089686;28;20186;-69
2023/08/27 08:35:45;;;;;;;3.20;2.50;;;;;;;18.75;72.38;95716.03;5089754;28;20218;-71
2023/08/27 08:38:11;;;;;;;15.53;4.30;;;;;;;18.71;72.48;95727.91;5089077;28;20280;-70
2023/08/27 08:40:44;;;;;;;8.00;2.67;;;;;;;18.81;71.36;95726.16;5089452;28;20625;-69
2023/08/27 08:43:24;;;;;;;3.53;2.23;;;;;;;18.66;71.94;95716.00;5089615;28;20720;-70
2023/08/27 08:45:58;;;;;;;6.97;3.00;;;;;;;18.90;72.04;95731.63;5089512;28;20411;-70
2023/08/27 08:48:26;;;;;;;17.27;3.30;;;;;;;18.97;71.40;95752.25;5088734;28;20399;-69
2023/08/27 08:50:53;;;;;;;14.03;3.50;;;;;;;18.82;72.50;95762.38;5088360;28;20835;-70
2023/08/27 08:53:20;;;;;;;6.60;2.70;;;;;;;18.83;71.52;95745.47;5088147;28;20423;-68
2023/08/27 08:55:46;;;;;;;5.40;2.50;;;;;;;18.64;72.45;95748.03;5087730;28;20403;-71
2023/08/27 08:58:13;;;;;;;3.50;3.00;;;;;;;18.77;72.09;95747.81;5087764;28;20536;-70
2023/08/27 09:00:39;;;;;;;3.80;2.30;;;;;;;18.88;70.81;95746.91;5086895;28;20510;-68
2023/08/27 09:03:04;;;;;;;3.87;3.03;;;;;;;18.94;70.61;95738.38;5088027;28;20466;-69
2023/08/27 09:05:34;;;;;;;6.70;1.97;;;;;;;19.10;70.63;95736.03;5091272;28;20407;-71
2023/08/27 09:08:00;;;;;;;4.00;2.60;;;;;;;19.07;70.38;95744.31;5090982;28;20654;-70
2023/08/27 09:10:26;;;;;;;8.27;2.90;;;;;;;19.15;70.34;95741.78;5090718;28;20500;-72
2023/08/27 09:12:57;;;;;;;8.00;2.87;;;;;;;19.20;69.70;95736.91;5091407;28;20679;-69
2023/08/27 09:15:23;;;;;;;8.40;2.53;;;;;;;19.35;68.99;95734.72;5090813;28;20408;-70
2023/08/27 09:17:48;;;;;;;8.97;3.00;;;;;;;19.36;68.62;95733.72;5090353;28;20504;-71
2023/08/27 09:20:14;;;;;;;6.30;2.60;;;;;;;19.41;68.02;95725.31;5090371;28;20490;-71
2023/08/27 09:22:41;;;;;;;3.10;2.77;;;;;;;19.43;67.06;95715.38;5090724;28;20327;-70
2023/08/27 09:25:07;;;;;;;3.50;2.20;;;;;;;19.40;67.62;95713.00;5090472;28;20176;-69
2023/08/27 09:27:33;;;;;;;7.80;1.93;;;;;;;19.36;67.45;95704.44;5090602;28;20423;-70
2023/08/27 09:30:00;;;;;;;3.07;2.00;;;;;;;19.40;66.86;95691.72;5090278;28;20426;-69
2023/08/27 09:32:26;;;;;;;3.97;2.30;;;;;;;19.45;67.14;95694.81;5090344;28;20208;-68
2023/08/27 09:34:59;;;;;;;13.23;2.70;;;;;;;19.23;67.32;95686.09;5090543;28;20424;-70
2023/08/27 09:37:37;;;;;;;8.70;2.50;;;;;;;19.07;67.92;95688.44;5090251;28;20712;-70
2023/08/27 09:40:06;;;;;;;11.33;2.77;;;;;;;19.17;67.39;95691.97;5090197;28;20486;-70
2023/08/27 09:42:32;;;;;;;20.13;3.30;;;;;;;19.42;67.04;95700.41;5090122;28;20498;-69
2023/08/27 09:44:58;;;;;;;15.47;3.40;;;;;;;19.42;66.85;95692.44;5090050;28;21164;-70
2023/08/27 09:47:32;;;;;;;6.90;2.93;;;;;;;19.35;66.02;95693.97;5089914;28;20530;-70
2023/08/27 09:50:04;;;;;;;8.53;2.60;;;;;;;19.39;66.65;95690.03;5089787;28;20547;-70
2023/08/27 09:52:29;;;;;;;14.37;3.40;;;;;;;19.50;66.00;95697.88;5089618;28;20430;-71
2023/08/27 09:54:55;;;;;;;32.30;5.70;;;;;;;19.57;66.55;95707.00;5089815;28;20415;-71
2023/08/27 09:57:21;;;;;;;6.23;2.63;;;;;;;19.56;66.86;95717.75;5089774;28;20165;-72
2023/08/27 09:59:47;;;;;;;6.87;2.20;;;;;;;19.52;66.42;95717.22;5089513;28;20236;-70
2023/08/27 10:02:13;;;;;;;3.87;2.10;;;;;;;19.42;67.16;95727.84;5089488;28;20205;-71
2023/08/27 10:04:56;;;;;;;3.70;2.43;;;;;;;19.41;67.01;95726.16;5089644;28;20773;-71
2023/08/27 10:07:22;;;;;;;7.53;2.87;;;;;;;19.40;66.36;95723.66;5089454;28;20403;-72
2023/08/27 10:09:50;;;;;;;2.73;1.90;;;;;;;19.25;67.20;95713.41;5089135;28;20793;-70
2023/08/27 10:12:16;;;;;;;4.70;2.30;;;;;;;19.14;67.64;95718.84;5089345;28;20415;-69
2023/08/27 10:14:44;;;;;;;3.00;2.13;;;;;;;19.21;67.68;95701.34;5088094;28;20893;-72
2023/08/27 10:17:10;;;;;;;13.50;2.80;;;;;;;19.15;67.51;95701.88;5089299;28;20416;-71
2023/08/27 10:19:36;;;;;;;8.40;2.83;;;;;;;19.17;67.19;95696.44;5089186;28;20412;-71
2023/08/27 10:22:06;;;;;;;9.00;3.43;;;;;;;19.24;67.51;95684.28;5089387;28;20476;-70
2023/08/27 10:24:32;;;;;;;7.73;2.83;;;;;;;19.33;67.90;95683.44;5089651;28;20173;-71
2023/08/27 10:26:59;;;;;;;3.83;2.70;;;;;;;19.54;67.84;95685.16;5089291;28;20392;-71
2023/08/27 10:29:26;;;;;;;3.13;2.20;;;;;;;19.45;68.11;95679.66;5088621;28;20404;-68
2023/08/27 10:31:52;;;;;;;4.10;2.50;;;;;;;19.35;69.12;95672.69;5088941;28;20468;-69
2023/08/27 10:34:18;;;;;;;7.03;2.70;;;;;;;19.28;69.39;95666.22;5089032;28;20410;-70
2023/08/27 10:36:45;;;;;;;3.10;2.60;;;;;;;19.37;68.57;95676.88;5089033;28;20478;-70
2023/08/27 10:39:12;;;;;;;6.40;2.63;;;;;;;19.48;68.00;95688.34;5088827;28;20534;-71
2023/08/27 10:41:37;;;;;;;4.53;1.97;;;;;;;19.42;67.94;95684.44;5089180;28;20452;-69
2023/08/27 10:44:03;;;;;;;5.50;2.10;;;;;;;19.41;66.69;95688.06;5089183;28;20919;-71
2023/08/27 10:46:28;;;;;;;4.80;2.50;;;;;;;19.51;66.46;95690.72;5088881;28;20653;-71
2023/08/27 10:48:54;;;;;;;12.63;3.10;;;;;;;19.52;66.56;95701.25;5088844;28;20172;-69
2023/08/27 10:51:26;;;;;;;8.90;2.37;;;;;;;19.58;66.38;95711.34;5088975;28;20730;-70
2023/08/27 10:53:52;;;;;;;5.80;2.50;;;;;;;19.48;66.47;95715.81;5089012;28;20382;-70
2023/08/27 10:56:36;;;;;;;6.50;3.00;;;;;;;19.43;66.34;95710.06;5088895;28;20992;-68
2023/08/27 10:59:10;;;;;;;6.83;2.30;;;;;;;19.45;66.17;95703.63;5088378;28;20630;-69
2023/08/27 11:01:37;;;;;;;6.13;1.80;;;;;;;19.33;66.49;95701.25;5088335;28;20512;-70
2023/08/27 11:04:06;;;;;;;4.83;2.33;;;;;;;19.38;66.91;95704.31;5088487;28;20402;-70
2023/08/27 11:06:46;;;;;;;3.43;2.33;;;;;;;19.08;67.34;95706.06;5088386;28;20412;-70
2023/08/27 11:09:14;;;;;;;4.40;2.30;;;;;;;19.18;67.65;95708.75;5088082;28;20600;-70
2023/08/27 11:11:41;;;;;;;5.10;2.50;;;;;;;19.19;67.29;95713.94;5088487;28;20426;-71
2023/08/27 11:14:11;;;;;;;3.03;2.07;;;;;;;19.29;66.85;95715.78;5089280;28;20476;-71
2023/08/27 11:16:58;;;;;;;2.93;1.90;;;;;;;19.36;66.71;95719.56;5104114;28;20407;-70
2023/08/27 11:19:30;;;;;;;2.40;1.70;;;;;;;19.24;67.11;95710.88;5102201;28;20527;-71
2023/08/27 11:22:20;;;;;;;4.77;3.07;;;;;;;19.24;66.24;95703.72;5096017;28;20464;-71
2023/08/27 11:24:47;;;;;;;4.57;2.37;;;;;;;19.34;65.98;95708.22;5095894;28;20415;-72
2023/08/27 11:27:16;;;;;;;3.90;2.30;;;;;;;19.33;65.73;95702.06;5091153;28;20775;-71